• Join FlightAware (Why Join?)
  • Login
  • US Flag 
07:03PM EDT


 

Airport Tracker/Info


-or-


 

Live Flight TrackerFlight Track Log ✈ N789EX ✈ 06-Feb-2014 ✈ KTCM - KWRB

Flight Track Log - Related Links

Times and Time Zones

All times are in EST time to prevent confusion due to time zone crossing. See the N789EX flight status page for this flight to view local times or setup timezone preferences in your user account.

Time Position Orientation Groundspeed Altitude Reporting Facility
EST Latitude Longitude Course Direction KTS MPH feet Rate Location/Type
03:05PM 36.0482 -116.2842 87° East  Level Estimated
03:06PM 36.0606 -115.8997 88° East  Level Estimated
03:07PM 36.0718 -115.5150 88° East  Level Estimated
03:08PM 36.0817 -115.1303 88° East  Level Estimated
03:09PM 36.0905 -114.7455 88° East  Level Estimated
03:10PM 36.0979 -114.3605 89° East  Level Estimated
03:11PM 36.1042 -113.9756 89° East  Level Estimated
03:12PM 36.1092 -113.5905 89° East  Level Estimated
03:13PM 36.1130 -113.2054 89° East  Level Estimated
03:14PM 36.1156 -112.8203 89° East  Level Estimated
03:15PM 36.1169 -112.4352 90° East  Level Estimated
03:16PM 36.1170 -112.0501 90° East  Level Estimated
03:17PM 36.1159 -111.6649 90° East  Level Estimated
03:18PM 36.1135 -111.2798 90° East  Level Estimated
03:19PM 36.1099 -110.8947 91° East  Level Estimated
03:20PM 36.1051 -110.5097 91° East  Level Estimated
03:21PM 36.0990 -110.1247 91° East  Level Estimated
03:22PM 36.0917 -109.7398 91° East  Level Estimated
03:23PM 36.0832 -109.3549 91° East  Level Estimated
03:24PM 36.0734 -108.9702 92° East  Level Estimated
03:25PM 36.0624 -108.5855 92° East  Level Estimated
03:26PM 36.0502 -108.2010 92° East  Level Estimated
03:27PM 36.0368 -107.8166 92° East  Level Estimated
03:28PM 36.0221 -107.4323 93° East  Level Estimated
03:29PM 36.0062 -107.0481 93° East  Level Estimated
03:30PM 35.9891 -106.6642 93° East  Level Estimated
03:31PM 35.9708 -106.2804 93° East  Level Estimated
03:32PM 35.9512 -105.8968 93° East  Level Estimated
03:33PM 35.9304 -105.5134 94° East  Level Estimated
03:34PM 35.9084 -105.1301 94° East  Level Estimated
03:35PM 35.8852 -104.7471 94° East  Level Estimated
03:36PM 35.8608 -104.3644 94° East  Level Estimated
03:37PM 35.8351 -103.9819 95° East  Level Estimated
03:38PM 35.8083 -103.5996 95° East  Level Estimated
03:39PM 35.7802 -103.2176 95° East  Level Estimated
03:40PM 35.7509 -102.8359 95° East  Level Estimated
03:41PM 35.7205 -102.4544 96° East  Level Estimated
03:42PM 35.6888 -102.0733 96° East  Level Estimated
03:43PM 35.6559 -101.6925 96° East  Level Estimated
03:44PM 35.6218 -101.3120 96° East  Level Estimated
03:45PM 35.5865 -100.9318 96° East  Level Estimated
03:46PM 35.5501 -100.5519 97° East  Level Estimated
03:47PM 35.5124 -100.1724 97° East  Level Estimated
03:48PM 35.4736 -99.7933 97° East  Level Estimated
03:49PM 35.4335 -99.4146 97° East  Level Estimated
03:50PM 35.3923 -99.0362 98° East  Level Estimated
03:51PM 35.3499 -98.6582 98° East  Level Estimated
03:52PM 35.3064 -98.2806 98° East  Level Estimated
03:53PM 35.2616 -97.9034 98° East  Level Estimated
03:54PM 35.2157 -97.5267 98° East  Level Estimated
03:55PM 35.1686 -97.1504 99° East  Level Estimated
03:56PM 35.1204 -96.7745 99° East  Level Estimated
03:57PM 35.0710 -96.3990 99° East  Level Estimated
03:58PM 35.0205 -96.0241 99° East  Level Estimated
03:59PM 34.9688 -95.6496 99° East  Level Estimated
04:00PM 34.9159 -95.2756 100° East  Level Estimated
04:01PM 34.8619 -94.9020 100° East  Level Estimated
04:02PM 34.8068 -94.5290 100° East  Level Estimated
04:03PM 34.7505 -94.1564 100° East  Level Estimated
04:04PM 34.6931 -93.7844 101° East  Level Estimated
04:05PM 34.6346 -93.4129 101° East  Level Estimated
04:06PM 34.5749 -93.0419 101° East  Level Estimated
04:07PM 34.5142 -92.6715 101° East  Level Estimated
04:08PM 34.4523 -92.3016 101° East  Level Estimated
04:09PM 34.3893 -91.9323 102° East  Level Estimated
04:10PM 34.3251 -91.5635 102° East  Level Estimated
04:11PM 34.2599 -91.1953 102° East  Level Estimated
04:12PM 34.1936 -90.8277 102° East  Level Estimated
04:13PM 34.1262 -90.4606 102° East  Level Estimated
04:14PM 34.0577 -90.0941 103° East  Level Estimated
04:15PM 33.9881 -89.7283 103° East  Level Estimated
04:16PM 33.9174 -89.3630 103° East  Level Estimated
04:17PM 33.8457 -88.9984 103° East  Level Estimated
04:18PM 33.7729 -88.6343 103° East  Level Estimated
04:19PM 33.6990 -88.2709 104° East  Level Estimated
04:20PM 33.6240 -87.9081 104° East  Level Estimated
04:21PM 33.5480 -87.5460 104° East  Level Estimated
04:22PM 33.4710 -87.1844 104° East  Level Estimated
04:23PM 33.3929 -86.8236 104° East  Level Estimated
04:24PM 33.3137 -86.4634 105° East  Level Estimated
04:25PM 33.2335 -86.1038 105° East  Level Estimated
04:26PM 33.1523 -85.7449 105° East  Level Estimated
04:27PM 33.0701 -85.3867 105° East  Level Estimated
04:28PM 32.9868 -85.0292 105° East  Level Estimated
04:29PM 32.9025 -84.6723 106° East  Level Estimated
04:30PM 32.8172 -84.3161 106° East  Level Estimated
04:31PM 32.7309 -83.9606 106° East  Level Estimated
04:32PM 32.6436 -83.6058 106° East  Level Estimated
04:33PM 32.6402 -83.5919 106° East  Level Estimated
04:34PM 32.6402 -83.5919 320° Northwest  Level Estimated
04:35PM 32.6402 -83.5919 320° Northwest  Level Estimated
04:36PM 32.6402 -83.5919 320° Northwest  Level Estimated
04:37PM 32.6402 -83.5919 320° Northwest  Level Estimated
04:38PM 32.6402 -83.5919 320° Northwest  Level Estimated
04:39PM 32.6402 -83.5919 320° Northwest  Level Estimated
04:40PM 32.6402 -83.5919 320° Northwest  Level Estimated
04:41PM 32.6402 -83.5919 320° Northwest  Level Estimated
04:42PM 32.6402 -83.5919 320° Northwest  Level Estimated
04:43PM 32.6402 -83.5919 320° Northwest  Level Estimated
04:44PM 32.6402 -83.5919 320° Northwest  Level Estimated
04:45PM 32.6402 -83.5919 320° Northwest  Level Estimated
04:46PM 32.6402 -83.5919 320° Northwest  Level Estimated
04:47PM 32.6402 -83.5919 320° Northwest  Level Estimated
04:48PM 32.6402 -83.5919 320° Northwest  Level Estimated
04:49PM 32.6402 -83.5919 320° Northwest  Level Estimated
04:50PM 32.6402 -83.5919 320° Northwest  Level Estimated
04:51PM 32.6402 -83.5919 320° Northwest  Level Estimated
04:52PM 32.6402 -83.5919 320° Northwest  Level Estimated
04:53PM 32.6402 -83.5919 320° Northwest  Level Estimated
04:54PM 32.6402 -83.5919 320° Northwest  Level Estimated
04:55PM 32.6402 -83.5919 320° Northwest  Level Estimated
04:56PM 32.6402 -83.5919 320° Northwest  Level Estimated
04:57PM 32.6402 -83.5919 320° Northwest  Level Estimated
04:58PM 32.6402 -83.5919 320° Northwest  Level Estimated
04:59PM 32.6402 -83.5919 320° Northwest  Level Estimated
05:00PM 32.6402 -83.5919 320° Northwest  Level Estimated
05:01PM 32.6402 -83.5919 320° Northwest  Level Estimated
05:02PM 32.6402 -83.5919 320° Northwest  Level Estimated
05:03PM 32.6402 -83.5919 320° Northwest  Level Estimated
05:04PM 32.6402 -83.5919 320° Northwest  Level Estimated
05:05PM 32.6402 -83.5919 320° Northwest  Level Estimated
05:06PM 32.6402 -83.5919 320° Northwest  Level Estimated